Time;durP1;ratioP1;P1;durP2;ratioP2;P2;SDS_P1;SDS_P2;PMS_P1;PMS_P2;Temp;Humidity;BMP_temperature;BMP_pressure;BME280_temperature;BME280_humidity;BME280_pressure;Samples;Min_cycle;Max_cycle;Signal;HPM_P1;HPM_P2
2023/01/19 00:00:23;;;;;;;6.43;3.50;;;21.50;54.10;;;;;;5056630;28;20174;-66
2023/01/19 00:02:49;;;;;;;4.70;3.13;;;21.50;54.10;;;;;;5056570;28;20436;-66
2023/01/19 00:05:15;;;;;;;5.53;3.40;;;21.50;54.20;;;;;;5056472;28;20189;-66
2023/01/19 00:07:41;;;;;;;4.47;3.50;;;21.40;54.00;;;;;;5056572;28;20178;-66
2023/01/19 00:10:08;;;;;;;3.93;3.03;;;21.50;54.10;;;;;;5056408;28;20984;-66
2023/01/19 00:12:34;;;;;;;5.00;3.80;;;21.50;54.10;;;;;;5056275;28;20244;-66
2023/01/19 00:14:59;;;;;;;4.50;3.30;;;21.50;54.10;;;;;;5056659;28;20405;-66
2023/01/19 00:17:25;;;;;;;4.37;3.53;;;21.50;54.10;;;;;;5056324;28;20171;-65
2023/01/19 00:19:51;;;;;;;5.60;3.43;;;21.50;54.10;;;;;;5056452;28;20178;-66
2023/01/19 00:22:16;;;;;;;4.57;3.10;;;21.50;54.10;;;;;;5056276;28;20183;-66
2023/01/19 00:24:43;;;;;;;4.87;3.30;;;21.50;54.10;;;;;;5056203;28;20175;-66
2023/01/19 00:27:08;;;;;;;5.60;3.47;;;21.50;54.10;;;;;;5056393;28;20179;-66
2023/01/19 00:29:34;;;;;;;5.00;3.17;;;21.50;54.10;;;;;;5056096;28;20917;-66
2023/01/19 00:32:01;;;;;;;3.97;3.07;;;21.50;54.10;;;;;;5056217;28;20266;-65
2023/01/19 00:34:35;;;;;;;6.10;3.53;;;21.50;54.10;;;;;;5055953;28;20198;-66
2023/01/19 00:37:08;;;;;;;4.80;3.33;;;21.40;54.00;;;;;;5056278;28;20381;-65
2023/01/19 00:39:34;;;;;;;6.57;3.30;;;21.50;54.10;;;;;;5056257;28;20425;-66
2023/01/19 00:44:44;;;;;;;4.50;2.67;;;21.40;54.00;;;;;;5055964;28;20170;-66
2023/01/19 00:47:09;;;;;;;4.50;3.17;;;21.40;54.00;;;;;;5056033;28;20417;-65
2023/01/19 00:49:35;;;;;;;4.27;3.37;;;21.40;54.00;;;;;;5055744;28;20179;-66
2023/01/19 00:52:00;;;;;;;5.77;3.97;;;21.40;54.00;;;;;;5055657;28;20203;-66
2023/01/19 00:54:26;;;;;;;4.77;3.07;;;21.40;54.00;;;;;;5055665;28;20226;-65
2023/01/19 00:56:52;;;;;;;4.77;3.00;;;21.40;54.00;;;;;;5055785;28;20199;-66
2023/01/19 00:59:18;;;;;;;3.73;3.07;;;21.40;54.00;;;;;;5055552;28;20205;-66
2023/01/19 01:01:43;;;;;;;3.70;3.00;;;21.40;54.00;;;;;;5055485;28;20695;-66
2023/01/19 01:04:11;;;;;;;4.37;2.97;;;21.40;54.00;;;;;;5055469;28;20170;-66
2023/01/19 01:06:36;;;;;;;6.03;4.20;;;21.40;54.00;;;;;;5054946;28;20726;-66
2023/01/19 01:09:10;;;;;;;3.73;3.10;;;21.40;54.00;;;;;;5055412;28;20497;-66
2023/01/19 01:11:38;;;;;;;3.40;2.73;;;21.30;53.90;;;;;;5055318;28;20183;-66
2023/01/19 01:14:04;;;;;;;4.43;3.23;;;21.40;54.00;;;;;;5055176;28;20541;-66
2023/01/19 01:16:30;;;;;;;4.90;3.40;;;21.40;54.00;;;;;;5055204;28;20488;-66
2023/01/19 01:18:55;;;;;;;4.20;2.90;;;21.40;54.00;;;;;;5055445;28;20575;-66
2023/01/19 01:21:22;;;;;;;6.23;3.03;;;21.30;53.90;;;;;;5055122;28;20550;-66
2023/01/19 01:23:48;;;;;;;3.60;2.83;;;21.40;54.00;;;;;;5055117;28;20588;-66
2023/01/19 01:26:13;;;;;;;3.70;3.07;;;21.40;54.00;;;;;;5055074;28;20467;-66
2023/01/19 01:28:39;;;;;;;3.53;2.90;;;21.40;54.10;;;;;;5054997;28;20640;-65
2023/01/19 01:31:04;;;;;;;4.30;3.47;;;21.30;53.90;;;;;;5054889;28;20226;-66
2023/01/19 01:33:30;;;;;;;4.50;3.50;;;21.30;54.00;;;;;;5054745;28;20211;-65
2023/01/19 01:35:56;;;;;;;3.83;3.30;;;21.40;54.00;;;;;;5054858;28;20179;-66
2023/01/19 01:38:21;;;;;;;3.73;2.70;;;21.30;53.90;;;;;;5054765;28;20172;-66
2023/01/19 01:40:47;;;;;;;4.70;3.07;;;21.30;53.90;;;;;;5054763;28;20167;-65
2023/01/19 01:43:14;;;;;;;5.00;2.67;;;21.30;53.90;;;;;;5054723;28;20171;-65
2023/01/19 01:45:41;;;;;;;6.50;3.73;;;21.30;53.90;;;;;;5054688;28;20198;-66
2023/01/19 01:48:12;;;;;;;3.93;2.67;;;21.30;53.90;;;;;;5054564;28;20405;-66
2023/01/19 01:51:22;;;;;;;3.63;3.27;;;21.30;53.90;;;;;;5054591;28;20916;-66
2023/01/19 01:53:30;;;;;;;5.57;2.80;;;21.30;53.90;;;;;;5054333;28;20453;-66
2023/01/19 01:55:57;;;;;;;4.60;3.00;;;21.30;53.90;;;;;;5054448;28;20394;-66
2023/01/19 01:58:22;;;;;;;7.07;3.63;;;21.30;54.50;;;;;;5054381;28;20929;-66
2023/01/19 02:03:33;;;;;;;5.13;2.90;;;21.30;53.90;;;;;;5055234;28;20615;-66
2023/01/19 02:06:03;;;;;;;3.73;2.90;;;21.30;53.90;;;;;;5054569;28;20425;-66
2023/01/19 02:14:21;;;;;;;4.20;3.20;;;21.30;53.90;;;;;;5054451;28;20498;-66
2023/01/19 02:16:47;;;;;;;4.00;3.10;;;21.30;53.90;;;;;;5053466;28;20812;-66
2023/01/19 02:19:18;;;;;;;4.20;2.47;;;21.30;53.90;;;;;;5053858;28;20212;-66
2023/01/19 02:21:49;;;;;;;3.97;2.97;;;21.30;53.90;;;;;;5053957;28;20417;-66
2023/01/19 02:24:16;;;;;;;4.17;2.50;;;21.30;54.00;;;;;;5054235;28;20473;-66
2023/01/19 02:26:45;;;;;;;3.90;2.60;;;21.30;53.90;;;;;;5054106;28;20415;-66
2023/01/19 02:29:15;;;;;;;3.60;2.60;;;21.30;53.90;;;;;;5052600;28;20425;-65
2023/01/19 02:31:40;;;;;;;3.07;2.30;;;21.30;53.90;;;;;;5053924;28;20466;-66
2023/01/19 02:34:09;;;;;;;3.37;2.67;;;21.30;53.90;;;;;;5053621;28;20902;-65
2023/01/19 02:36:46;;;;;;;3.83;3.43;;;21.30;53.90;;;;;;5052436;28;20171;-66
2023/01/19 02:39:18;;;;;;;3.90;2.90;;;21.30;54.50;;;;;;5053984;28;20382;-66
2023/01/19 02:41:50;;;;;;;3.30;2.63;;;21.20;53.80;;;;;;5053537;28;20516;-66
2023/01/19 02:44:18;;;;;;;4.23;2.97;;;21.30;53.90;;;;;;5053876;28;20397;-66
2023/01/19 02:46:44;;;;;;;3.60;2.57;;;21.30;53.90;;;;;;5053525;28;20479;-66
2023/01/19 02:49:10;;;;;;;3.07;2.77;;;21.30;53.90;;;;;;5053488;28;20437;-66
2023/01/19 02:51:35;;;;;;;3.53;2.27;;;21.30;53.90;;;;;;5053928;28;20195;-66
2023/01/19 02:54:04;;;;;;;2.93;2.50;;;21.30;53.90;;;;;;5053333;28;20226;-65
2023/01/19 02:56:32;;;;;;;4.10;2.43;;;21.30;53.90;;;;;;5053390;28;20581;-66
2023/01/19 02:59:16;;;;;;;3.57;2.80;;;21.30;53.90;;;;;;5053327;28;20844;-66
2023/01/19 03:01:45;;;;;;;3.80;2.50;;;21.30;53.90;;;;;;5051959;28;20997;-66
2023/01/19 03:04:25;;;;;;;3.60;2.17;;;21.20;53.80;;;;;;5053164;28;20571;-66
2023/01/19 03:07:10;;;;;;;3.70;2.60;;;21.20;53.90;;;;;;5053234;28;20393;-66
2023/01/19 03:09:48;;;;;;;3.10;2.60;;;21.30;53.90;;;;;;5053209;28;20791;-66
2023/01/19 03:12:35;;;;;;;4.37;3.17;;;21.20;53.90;;;;;;5053205;28;20421;-66
2023/01/19 03:15:14;;;;;;;2.83;2.43;;;21.20;53.90;;;;;;5053142;28;20417;-65
2023/01/19 03:17:43;;;;;;;4.50;2.50;;;21.20;53.90;;;;;;5053045;28;20388;-66
2023/01/19 03:20:12;;;;;;;3.10;2.17;;;21.20;53.90;;;;;;5053024;28;20898;-66
2023/01/19 03:22:38;;;;;;;2.90;2.40;;;21.20;53.90;;;;;;5052897;28;20471;-66
2023/01/19 03:25:05;;;;;;;3.73;3.00;;;21.20;53.90;;;;;;5053253;28;20939;-66
2023/01/19 03:27:39;;;;;;;4.77;2.80;;;21.20;53.90;;;;;;5052981;28;20928;-66
2023/01/19 03:30:17;;;;;;;4.10;2.50;;;21.20;53.90;;;;;;5051505;28;20496;-66
2023/01/19 03:32:54;;;;;;;3.90;2.50;;;21.20;53.90;;;;;;5052539;28;20481;-66
2023/01/19 03:35:23;;;;;;;2.70;2.30;;;21.20;53.90;;;;;;5052916;28;20393;-66
2023/01/19 03:37:53;;;;;;;4.50;2.67;;;21.20;53.90;;;;;;5053149;28;20752;-66
2023/01/19 03:40:20;;;;;;;3.73;2.53;;;21.20;53.90;;;;;;5052921;28;20382;-66
2023/01/19 03:42:48;;;;;;;3.23;2.60;;;21.20;53.90;;;;;;5052702;28;20435;-66
2023/01/19 03:45:14;;;;;;;3.80;2.20;;;21.20;53.90;;;;;;5052805;28;20464;-66
2023/01/19 03:47:40;;;;;;;2.73;2.20;;;21.20;53.90;;;;;;5052731;28;20409;-66
2023/01/19 03:50:13;;;;;;;3.13;2.43;;;21.20;53.90;;;;;;5052753;28;20492;-66
2023/01/19 03:52:38;;;;;;;3.60;2.73;;;21.20;53.80;;;;;;5051480;28;20421;-66
2023/01/19 03:55:05;;;;;;;3.00;2.20;;;21.20;53.90;;;;;;5052673;28;20913;-66
2023/01/19 03:57:31;;;;;;;3.83;2.60;;;21.20;53.90;;;;;;5052647;28;20210;-65
2023/01/19 03:59:56;;;;;;;2.53;2.17;;;21.20;53.90;;;;;;5052643;28;20445;-66
2023/01/19 04:02:23;;;;;;;4.93;2.80;;;21.20;54.00;;;;;;5052755;28;20186;-66
2023/01/19 04:04:48;;;;;;;3.57;2.50;;;21.20;53.90;;;;;;5052557;28;20171;-66
2023/01/19 04:07:14;;;;;;;3.80;2.13;;;21.20;54.00;;;;;;5052580;28;20406;-66
2023/01/19 04:09:40;;;;;;;3.37;2.60;;;21.20;54.00;;;;;;5052525;28;20179;-65
2023/01/19 04:12:06;;;;;;;2.90;2.30;;;21.10;53.90;;;;;;5052452;28;20675;-66
2023/01/19 04:14:31;;;;;;;3.80;2.40;;;21.20;54.00;;;;;;5052403;28;20218;-65
2023/01/19 04:16:57;;;;;;;3.40;2.27;;;21.20;54.00;;;;;;5052411;28;20922;-66
2023/01/19 04:19:23;;;;;;;5.20;2.20;;;21.10;54.00;;;;;;5052451;28;20171;-66
2023/01/19 04:21:49;;;;;;;4.17;2.63;;;21.10;54.00;;;;;;5051082;28;20193;-66
2023/01/19 04:24:16;;;;;;;3.67;2.17;;;21.10;54.00;;;;;;5052380;28;20479;-66
2023/01/19 04:26:42;;;;;;;3.27;2.57;;;21.10;54.00;;;;;;5052346;28;20405;-66
2023/01/19 04:29:07;;;;;;;3.37;2.30;;;21.10;54.00;;;;;;5052335;28;20402;-66
2023/01/19 04:31:34;;;;;;;4.07;2.53;;;21.10;54.00;;;;;;5052236;28;20429;-66
2023/01/19 04:34:00;;;;;;;2.63;2.13;;;21.10;54.00;;;;;;5052079;28;20679;-66
2023/01/19 04:36:27;;;;;;;3.27;1.97;;;21.10;54.00;;;;;;5052231;28;20397;-67
2023/01/19 04:38:53;;;;;;;3.03;2.50;;;21.10;54.00;;;;;;5052197;28;20456;-66
2023/01/19 04:41:19;;;;;;;4.10;2.57;;;21.10;54.00;;;;;;5054267;28;20477;-66
2023/01/19 04:43:46;;;;;;;4.50;2.67;;;21.10;54.10;;;;;;5056712;28;20804;-66
2023/01/19 04:46:12;;;;;;;2.73;2.27;;;21.00;54.00;;;;;;5056164;28;20598;-66
2023/01/19 04:48:38;;;;;;;3.23;2.30;;;21.10;54.10;;;;;;5055709;28;20441;-66
2023/01/19 04:51:04;;;;;;;2.50;2.23;;;21.00;54.00;;;;;;5055618;28;20610;-66
2023/01/19 04:53:29;;;;;;;2.80;2.13;;;21.10;54.10;;;;;;5056675;28;20667;-66
2023/01/19 04:55:55;;;;;;;3.80;2.43;;;21.00;54.00;;;;;;5055807;28;20170;-66
2023/01/19 04:58:21;;;;;;;2.83;2.57;;;21.00;54.00;;;;;;5057715;28;20543;-67
2023/01/19 05:00:47;;;;;;;2.60;2.03;;;21.00;54.00;;;;;;5054052;28;20181;-67
2023/01/19 05:03:12;;;;;;;3.10;2.50;;;21.00;54.00;;;;;;5055629;28;20190;-67
2023/01/19 05:05:38;;;;;;;3.60;2.50;;;21.00;54.00;;;;;;5055368;28;20414;-67
2023/01/19 05:08:04;;;;;;;2.57;2.03;;;21.00;54.00;;;;;;5055477;28;20171;-67
2023/01/19 05:10:29;;;;;;;2.20;1.80;;;21.00;54.00;;;;;;5054125;28;20194;-67
2023/01/19 05:12:55;;;;;;;2.40;1.87;;;21.00;54.00;;;;;;5055161;28;20702;-67
2023/01/19 05:15:20;;;;;;;2.50;2.03;;;21.00;54.00;;;;;;5055350;28;20174;-67
2023/01/19 05:17:46;;;;;;;3.80;2.33;;;21.00;54.00;;;;;;5055191;28;20558;-67
2023/01/19 05:20:13;;;;;;;2.33;1.63;;;21.00;54.00;;;;;;5055427;28;20167;-67
2023/01/19 05:22:38;;;;;;;4.27;2.83;;;21.00;54.00;;;;;;5053777;28;20938;-66
2023/01/19 05:25:07;;;;;;;2.30;1.97;;;21.00;54.00;;;;;;5055314;28;20417;-67
2023/01/19 05:27:33;;;;;;;2.47;2.00;;;21.00;54.00;;;;;;5055321;28;20164;-65
2023/01/19 05:29:59;;;;;;;2.50;2.00;;;21.00;54.50;;;;;;5055281;28;20428;-67
2023/01/19 05:32:24;;;;;;;2.20;1.93;;;21.00;54.00;;;;;;5054940;28;20785;-65
2023/01/19 05:34:50;;;;;;;2.70;2.20;;;21.00;54.00;;;;;;5054785;28;20195;-67
2023/01/19 05:37:15;;;;;;;2.53;2.20;;;21.00;54.00;;;;;;5054978;28;20633;-67
2023/01/19 05:39:41;;;;;;;3.90;2.50;;;21.00;53.90;;;;;;5054905;28;20174;-67
2023/01/19 05:42:07;;;;;;;3.30;2.27;;;21.00;53.90;;;;;;5053898;28;20197;-67
2023/01/19 05:44:32;;;;;;;3.63;2.07;;;21.00;53.90;;;;;;5054931;28;20181;-67
2023/01/19 05:46:58;;;;;;;3.43;2.40;;;21.00;53.90;;;;;;5054765;28;20167;-67
2023/01/19 05:49:23;;;;;;;2.97;2.07;;;21.00;53.90;;;;;;5054653;28;20584;-67
2023/01/19 05:51:49;;;;;;;2.97;2.33;;;21.00;53.80;;;;;;5054518;28;20199;-67
2023/01/19 05:54:15;;;;;;;2.57;2.20;;;21.00;53.80;;;;;;5054609;28;20199;-67
2023/01/19 05:56:41;;;;;;;2.63;1.97;;;21.00;54.40;;;;;;5054535;28;20518;-66
2023/01/19 05:59:07;;;;;;;3.00;2.23;;;21.00;53.80;;;;;;5054489;28;20167;-67
2023/01/19 06:01:34;;;;;;;2.70;2.23;;;21.00;53.80;;;;;;5054373;28;20421;-67
2023/01/19 06:04:00;;;;;;;2.70;2.20;;;21.00;53.80;;;;;;5053196;28;20437;-67
2023/01/19 06:06:25;;;;;;;3.93;2.23;;;21.00;53.80;;;;;;5054574;28;20441;-67
2023/01/19 06:08:51;;;;;;;3.60;2.40;;;21.00;53.80;;;;;;5054264;28;20175;-67
2023/01/19 06:11:16;;;;;;;4.90;2.57;;;21.00;53.80;;;;;;5054136;28;20539;-67
2023/01/19 06:13:42;;;;;;;2.00;1.80;;;21.00;53.80;;;;;;5054503;28;20191;-66
2023/01/19 06:16:08;;;;;;;2.10;1.77;;;21.00;53.80;;;;;;5054020;28;20175;-66
2023/01/19 06:18:34;;;;;;;3.00;2.00;;;21.00;53.70;;;;;;5054351;28;20632;-65
2023/01/19 06:21:08;;;;;;;5.73;1.97;;;21.00;53.70;;;;;;5054228;28;20397;-67
2023/01/19 06:23:34;;;;;;;4.50;2.47;;;21.00;53.80;;;;;;5053967;28;20258;-67
2023/01/19 06:26:01;;;;;;;3.57;2.50;;;21.00;53.70;;;;;;5053980;28;20952;-67
2023/01/19 06:28:27;;;;;;;2.70;2.03;;;21.10;53.80;;;;;;5054387;28;20491;-67
2023/01/19 06:30:54;;;;;;;3.10;2.30;;;21.10;53.80;;;;;;5053876;28;20859;-66
2023/01/19 06:33:20;;;;;;;2.97;1.77;;;21.10;53.80;;;;;;5053692;28;20465;-65
2023/01/19 06:35:48;;;;;;;4.07;2.13;;;21.10;53.80;;;;;;5053755;28;20456;-67
2023/01/19 06:38:14;;;;;;;2.70;2.50;;;21.10;53.80;;;;;;5053708;28;20397;-65
2023/01/19 06:40:40;;;;;;;3.53;2.23;;;21.10;53.80;;;;;;5053624;28;20440;-66
2023/01/19 06:43:06;;;;;;;2.77;2.10;;;21.10;53.90;;;;;;5053572;28;20409;-66
2023/01/19 06:45:32;;;;;;;3.97;3.43;;;21.20;54.00;;;;;;5053556;28;20413;-66
2023/01/19 06:47:58;;;;;;;2.30;1.70;;;21.20;54.00;;;;;;5053916;28;20493;-66
2023/01/19 06:50:24;;;;;;;2.23;2.03;;;21.20;54.00;;;;;;5053509;28;20167;-66
2023/01/19 06:52:50;;;;;;;2.40;2.07;;;21.20;53.90;;;;;;5053430;28;20194;-65
2023/01/19 06:55:16;;;;;;;3.67;2.20;;;21.20;53.90;;;;;;5053546;28;20175;-66
2023/01/19 06:57:43;;;;;;;3.30;1.77;;;21.20;53.90;;;;;;5053623;28;20815;-67
2023/01/19 07:00:10;;;;;;;3.10;2.17;;;21.20;53.90;;;;;;5053342;28;20518;-65
2023/01/19 07:02:44;;;;;;;2.53;1.90;;;21.20;53.90;;;;;;5053215;28;20426;-66
2023/01/19 07:05:13;;;;;;;3.23;2.40;;;21.20;53.90;;;;;;5053597;28;20389;-66
2023/01/19 07:07:39;;;;;;;2.87;1.70;;;21.30;54.00;;;;;;5051989;28;20467;-65
2023/01/19 07:10:07;;;;;;;4.00;2.60;;;21.30;53.90;;;;;;5053228;28;20401;-66
2023/01/19 07:12:32;;;;;;;1.67;1.47;;;21.30;53.90;;;;;;5053378;28;20814;-66
2023/01/19 07:14:58;;;;;;;2.47;1.90;;;21.30;53.90;;;;;;5053100;28;20453;-66
2023/01/19 07:17:24;;;;;;;2.23;2.00;;;21.30;53.90;;;;;;5053086;28;20814;-66
2023/01/19 07:19:49;;;;;;;2.00;1.60;;;21.30;53.90;;;;;;5051827;28;20206;-66
2023/01/19 07:22:15;;;;;;;3.47;1.80;;;21.40;54.00;;;;;;5053023;28;20194;-65
2023/01/19 07:24:41;;;;;;;2.37;1.80;;;21.30;53.90;;;;;;5052990;28;20178;-66
2023/01/19 07:27:07;;;;;;;2.40;2.03;;;21.40;54.00;;;;;;5053251;28;20608;-66
2023/01/19 07:29:32;;;;;;;2.50;1.77;;;21.40;54.00;;;;;;5053217;28;20539;-66
2023/01/19 07:31:58;;;;;;;4.07;1.90;;;21.40;53.90;;;;;;5052881;28;20195;-66
2023/01/19 07:34:24;;;;;;;1.97;1.57;;;21.40;53.90;;;;;;5052749;28;20675;-66
2023/01/19 07:36:50;;;;;;;2.20;2.00;;;21.40;53.90;;;;;;5053110;28;20414;-64
2023/01/19 07:39:15;;;;;;;2.40;1.93;;;21.40;53.90;;;;;;5052841;28;20171;-66
2023/01/19 07:41:41;;;;;;;3.53;2.10;;;21.40;53.90;;;;;;5053021;28;20233;-66
2023/01/19 07:44:07;;;;;;;2.43;2.00;;;21.40;53.90;;;;;;5052782;28;20179;-66
2023/01/19 07:46:33;;;;;;;2.80;1.60;;;21.40;53.90;;;;;;5052796;28;20680;-66
2023/01/19 07:48:58;;;;;;;2.07;1.67;;;21.40;53.90;;;;;;5052764;28;20551;-66
2023/01/19 07:51:24;;;;;;;2.63;1.83;;;21.40;53.90;;;;;;5051392;28;20290;-66
2023/01/19 07:53:51;;;;;;;2.33;2.00;;;21.40;53.80;;;;;;5052619;28;20201;-66
2023/01/19 07:56:16;;;;;;;3.27;2.03;;;21.40;53.80;;;;;;5051440;28;20175;-66
2023/01/19 07:58:42;;;;;;;3.00;2.17;;;21.40;53.80;;;;;;5052947;28;20590;-65
2023/01/19 08:01:10;;;;;;;2.93;2.00;;;21.40;53.80;;;;;;5052663;28;20191;-66
2023/01/19 08:03:38;;;;;;;3.57;2.10;;;21.40;53.80;;;;;;5053446;28;20262;-66
2023/01/19 08:06:05;;;;;;;3.03;1.70;;;21.40;53.80;;;;;;5052566;28;20420;-66
2023/01/19 08:08:32;;;;;;;2.50;2.20;;;21.40;53.80;;;;;;5052644;28;20412;-67
2023/01/19 08:10:58;;;;;;;2.43;1.70;;;21.50;53.90;;;;;;5052464;28;20508;-66
2023/01/19 08:13:23;;;;;;;1.73;1.40;;;21.50;53.90;;;;;;5052773;28;20559;-66
2023/01/19 08:15:51;;;;;;;2.60;2.00;;;21.40;53.80;;;;;;5053971;28;20203;-65
2023/01/19 08:18:17;;;;;;;2.30;1.90;;;21.40;53.80;;;;;;5056659;28;20483;-66
2023/01/19 08:20:42;;;;;;;3.33;1.73;;;21.40;53.80;;;;;;5056766;28;20439;-66
2023/01/19 08:23:09;;;;;;;1.80;1.67;;;21.40;53.80;;;;;;5056289;28;20413;-66
2023/01/19 08:25:37;;;;;;;1.80;1.53;;;21.40;53.80;;;;;;5056275;28;20217;-66
2023/01/19 08:28:04;;;;;;;2.17;1.97;;;21.40;53.80;;;;;;5056427;28;20492;-66
2023/01/19 08:30:31;;;;;;;2.10;1.70;;;21.40;53.90;;;;;;5055972;28;20425;-67
2023/01/19 08:33:02;;;;;;;1.83;1.60;;;21.40;53.80;;;;;;5055867;28;20456;-65
2023/01/19 08:35:33;;;;;;;1.63;1.43;;;21.40;53.90;;;;;;5056197;28;20484;-67
2023/01/19 08:38:00;;;;;;;2.47;1.73;;;21.40;53.90;;;;;;5056032;28;20409;-66
2023/01/19 08:40:34;;;;;;;1.70;1.50;;;21.40;53.80;;;;;;5055914;28;20412;-66
2023/01/19 08:43:06;;;;;;;2.40;1.80;;;21.40;53.90;;;;;;5056099;28;20440;-67
2023/01/19 08:45:34;;;;;;;2.47;1.83;;;21.40;53.90;;;;;;5055844;28;20413;-66
2023/01/19 08:48:00;;;;;;;2.17;1.87;;;21.40;53.90;;;;;;5056100;28;20418;-66
2023/01/19 08:50:27;;;;;;;2.10;1.90;;;21.40;53.90;;;;;;5055773;28;20409;-66
2023/01/19 08:53:00;;;;;;;2.00;1.60;;;21.40;53.90;;;;;;5055522;28;20491;-66
2023/01/19 08:55:27;;;;;;;2.23;1.80;;;21.30;53.80;;;;;;5055914;28;20430;-66
2023/01/19 08:57:56;;;;;;;2.40;1.70;;;21.40;53.90;;;;;;5055606;28;20416;-65
2023/01/19 09:00:23;;;;;;;2.30;2.10;;;21.40;53.90;;;;;;5055596;28;20413;-67
2023/01/19 09:02:50;;;;;;;2.00;1.80;;;21.40;53.90;;;;;;5055495;28;20429;-66
2023/01/19 09:05:16;;;;;;;2.83;2.20;;;21.40;54.00;;;;;;5055509;28;20412;-66
2023/01/19 09:07:45;;;;;;;2.40;1.73;;;21.40;53.90;;;;;;5055486;28;20405;-66
2023/01/19 09:10:11;;;;;;;2.20;1.77;;;21.40;54.00;;;;;;5055393;28;20420;-66
2023/01/19 09:12:36;;;;;;;2.57;1.80;;;21.40;53.90;;;;;;5055344;28;20512;-66
2023/01/19 09:15:02;;;;;;;2.40;1.93;;;21.40;54.00;;;;;;5055235;28;20574;-66
2023/01/19 09:17:28;;;;;;;2.30;1.80;;;21.40;53.90;;;;;;5055319;28;20167;-66
2023/01/19 09:19:53;;;;;;;2.03;1.60;;;21.40;53.90;;;;;;5055247;28;20691;-67
2023/01/19 09:22:19;;;;;;;2.60;2.10;;;21.40;53.90;;;;;;5055147;28;20195;-65
2023/01/19 09:24:44;;;;;;;2.07;1.50;;;21.40;53.90;;;;;;5055408;28;20213;-66
2023/01/19 09:27:10;;;;;;;1.97;1.60;;;21.40;53.90;;;;;;5054972;28;20210;-66
2023/01/19 09:29:36;;;;;;;1.97;1.43;;;21.40;53.90;;;;;;5055342;28;20179;-66
2023/01/19 09:32:01;;;;;;;2.60;1.80;;;21.40;53.90;;;;;;5054707;28;20290;-66
2023/01/19 09:34:27;;;;;;;1.80;1.30;;;21.40;53.90;;;;;;5054864;28;20248;-66
2023/01/19 09:36:53;;;;;;;1.73;1.43;;;21.40;53.90;;;;;;5055231;28;20599;-66
2023/01/19 09:39:19;;;;;;;1.77;1.50;;;21.40;53.90;;;;;;5054846;28;20175;-66
2023/01/19 09:41:50;;;;;;;4.50;2.20;;;21.40;53.90;;;;;;5055044;28;20425;-66
2023/01/19 17:35:35;;;;;;;9.33;6.77;;;18.60;43.80;;;;;;5585377;22;15062438;-71
2023/01/19 17:38:01;;;;;;;8.20;6.83;;;18.60;43.80;;;;;;6190516;23;20163;-71
2023/01/19 17:40:29;;;;;;;7.40;6.10;;;18.60;43.70;;;;;;6215785;23;20484;-72
2023/01/19 17:42:55;;;;;;;9.23;6.53;;;18.60;43.60;;;;;;6216152;23;20225;-71
2023/01/19 17:45:20;;;;;;;10.97;5.60;;;18.50;43.40;;;;;;6216071;23;20395;-70
2023/01/19 17:47:49;;;;;;;11.03;5.20;;;18.50;43.50;;;;;;6215636;23;20481;-71
2023/01/19 17:54:35;;;;;;;14.33;4.90;;;18.40;45.60;;;;;;5122904;27;20905;-76
2023/01/19 17:57:05;;;;;;;12.90;5.20;;;18.60;46.00;;;;;;5091144;28;20454;-73
2023/01/19 17:59:32;;;;;;;7.20;5.10;;;18.90;45.60;;;;;;5093512;28;20185;-75
2023/01/19 18:01:58;;;;;;;7.63;4.67;;;18.90;44.90;;;;;;5091327;28;20752;-75
2023/01/19 18:04:23;;;;;;;13.90;4.17;;;19.00;45.20;;;;;;5091001;28;20178;-75
2023/01/19 18:06:49;;;;;;;9.30;4.40;;;19.00;45.00;;;;;;5090721;28;20280;-75
2023/01/19 18:09:15;;;;;;;11.47;4.50;;;19.00;44.90;;;;;;5091688;28;20174;-75
2023/01/19 18:11:41;;;;;;;8.57;4.63;;;19.10;44.80;;;;;;5091063;28;20541;-75
2023/01/19 18:14:07;;;;;;;5.70;3.73;;;19.10;44.80;;;;;;5090997;28;20193;-75
2023/01/19 18:16:33;;;;;;;6.03;4.07;;;19.10;44.70;;;;;;5090722;28;20515;-75
2023/01/19 18:18:59;;;;;;;9.23;4.50;;;19.10;44.70;;;;;;5090803;28;20170;-75
2023/01/19 18:21:29;;;;;;;5.53;4.97;;;19.10;44.60;;;;;;5089489;28;20412;-75
2023/01/19 18:24:01;;;;;;;4.03;3.37;;;19.10;44.60;;;;;;5090892;28;20213;-75
2023/01/19 18:26:27;;;;;;;7.80;3.77;;;19.10;44.50;;;;;;5090402;28;20459;-74
2023/01/19 18:28:57;;;;;;;6.83;3.83;;;19.10;44.60;;;;;;5090560;28;20458;-75
2023/01/19 18:31:24;;;;;;;6.93;3.90;;;19.10;44.50;;;;;;5090833;28;20412;-75
2023/01/19 18:33:50;;;;;;;7.70;3.80;;;19.10;44.50;;;;;;5090370;28;20455;-75
2023/01/19 18:36:16;;;;;;;4.70;3.60;;;19.10;44.40;;;;;;5090258;28;20424;-75
2023/01/19 18:38:43;;;;;;;4.90;4.17;;;19.10;44.40;;;;;;5090334;28;20166;-75
2023/01/19 19:30:20;;;;;;;4.60;3.57;;;18.70;44.60;;;;;;5620918;22;20481;-74
2023/01/19 19:32:54;;;;;;;3.80;3.07;;;18.70;44.60;;;;;;5055800;28;20904;-75
2023/01/19 19:35:23;;;;;;;5.27;3.03;;;18.70;44.60;;;;;;5054582;28;20659;-75
2023/01/19 19:37:50;;;;;;;4.20;3.80;;;18.70;44.60;;;;;;5056051;28;20761;-75
2023/01/19 19:40:16;;;;;;;4.60;3.43;;;18.70;44.70;;;;;;5055898;28;20429;-75
2023/01/19 19:42:42;;;;;;;4.17;3.50;;;18.70;44.60;;;;;;5055628;28;20414;-74
2023/01/19 19:45:08;;;;;;;5.23;3.40;;;18.70;44.60;;;;;;5055792;28;20409;-75
2023/01/19 19:47:34;;;;;;;3.00;2.70;;;18.70;44.60;;;;;;5055658;28;20182;-74
2023/01/19 19:50:02;;;;;;;4.10;3.70;;;18.70;44.60;;;;;;5055670;28;20437;-74
2023/01/19 19:52:28;;;;;;;3.70;3.17;;;18.70;44.60;;;;;;5055411;28;20199;-75
2023/01/19 19:54:54;;;;;;;3.83;3.30;;;18.70;44.60;;;;;;5055181;28;20501;-75
2023/01/19 19:57:19;;;;;;;4.67;3.77;;;18.70;44.60;;;;;;5056037;28;20163;-75
2023/01/19 19:59:45;;;;;;;3.73;3.33;;;18.70;44.60;;;;;;5055411;28;20194;-74
2023/01/19 20:02:11;;;;;;;5.30;3.13;;;18.70;44.60;;;;;;5054174;28;20202;-75
2023/01/19 20:04:37;;;;;;;3.90;3.00;;;18.70;44.60;;;;;;5055140;28;20177;-74
2023/01/19 20:07:03;;;;;;;3.67;3.30;;;18.70;44.50;;;;;;5055431;28;20539;-75
2023/01/19 20:09:28;;;;;;;3.83;3.47;;;18.80;44.60;;;;;;5055187;28;20434;-75
2023/01/19 20:11:54;;;;;;;3.60;3.00;;;18.70;44.50;;;;;;5055280;28;20642;-75
2023/01/19 20:14:21;;;;;;;4.27;3.00;;;18.70;44.60;;;;;;5057142;28;20210;-76
2023/01/19 20:16:47;;;;;;;3.73;3.07;;;18.70;44.50;;;;;;5055621;28;20179;-75
2023/01/19 20:19:13;;;;;;;3.50;3.20;;;18.80;44.60;;;;;;5055461;28;20420;-75
2023/01/19 20:21:43;;;;;;;4.17;3.70;;;18.70;44.50;;;;;;5054696;28;20171;-75
2023/01/19 20:24:13;;;;;;;3.40;3.10;;;18.70;44.50;;;;;;5055198;28;20281;-76
2023/01/19 20:26:42;;;;;;;3.83;3.47;;;18.80;44.60;;;;;;5053617;28;20508;-75
2023/01/19 20:29:09;;;;;;;3.60;2.97;;;18.70;44.60;;;;;;5054917;28;20410;-75
2023/01/19 20:31:42;;;;;;;4.33;2.80;;;18.80;44.70;;;;;;5054862;28;20437;-76
2023/01/19 20:34:10;;;;;;;4.30;3.20;;;18.80;44.60;;;;;;5053649;28;20461;-75
2023/01/19 20:36:37;;;;;;;3.50;3.00;;;18.80;44.50;;;;;;5054736;28;20508;-76
2023/01/19 20:39:08;;;;;;;2.90;2.47;;;18.80;44.50;;;;;;5054849;28;20406;-75
2023/01/19 20:41:41;;;;;;;3.07;2.77;;;18.80;44.50;;;;;;5054635;28;20409;-76
2023/01/19 20:44:11;;;;;;;3.27;2.97;;;18.80;44.50;;;;;;5053692;28;20419;-76
2023/01/19 20:49:07;;;;;;;3.33;3.03;;;18.80;44.60;;;;;;5052745;28;20469;-73
2023/01/19 20:51:33;;;;;;;3.97;3.00;;;18.80;44.60;;;;;;5053795;28;20406;-75
2023/01/19 20:53:59;;;;;;;3.77;2.90;;;18.80;44.50;;;;;;5054106;28;20263;-78
2023/01/19 20:56:25;;;;;;;3.63;2.70;;;18.80;44.40;;;;;;5052847;28;20926;-78
2023/01/19 20:58:50;;;;;;;3.53;3.10;;;18.80;44.40;;;;;;5034676;28;20274;-78
2023/01/19 21:01:22;;;;;;;3.10;2.60;;;18.80;44.40;;;;;;5032719;28;20245;-77
2023/01/19 21:03:49;;;;;;;3.10;2.80;;;18.80;44.40;;;;;;5032406;28;20206;-78
2023/01/19 21:06:16;;;;;;;4.77;2.83;;;18.80;44.40;;;;;;5033860;28;20478;-78
2023/01/19 21:08:41;;;;;;;2.80;2.53;;;18.80;44.40;;;;;;5033687;28;20433;-78
2023/01/19 21:11:08;;;;;;;4.27;3.60;;;18.80;44.40;;;;;;5033695;28;20410;-77
2023/01/19 21:13:34;;;;;;;3.37;3.07;;;18.80;44.40;;;;;;5033604;28;20195;-75
2023/01/19 21:16:00;;;;;;;3.30;3.00;;;18.80;44.40;;;;;;5033408;28;20402;-75
2023/01/19 21:18:26;;;;;;;2.80;2.60;;;18.80;44.40;;;;;;5032639;28;20427;-74
2023/01/19 21:20:53;;;;;;;4.63;3.37;;;18.80;44.40;;;;;;5033761;28;20894;-74
2023/01/19 21:23:19;;;;;;;3.17;2.70;;;18.80;44.40;;;;;;5033518;28;20461;-74
2023/01/19 21:25:51;;;;;;;4.67;3.27;;;18.80;44.40;;;;;;5032299;28;20407;-75
2023/01/19 21:28:18;;;;;;;3.13;2.80;;;18.80;44.40;;;;;;5031848;28;20195;-74
2023/01/19 21:30:44;;;;;;;3.53;3.23;;;18.80;44.40;;;;;;5032298;28;20425;-76
2023/01/19 21:33:09;;;;;;;2.93;2.70;;;18.80;44.30;;;;;;5032781;28;20417;-76
2023/01/19 21:35:36;;;;;;;3.20;2.60;;;18.80;44.40;;;;;;5031955;28;20403;-76
2023/01/19 21:38:02;;;;;;;3.23;2.93;;;18.80;44.40;;;;;;5033233;28;20627;-76
2023/01/19 21:40:27;;;;;;;4.93;3.20;;;18.80;44.40;;;;;;5033179;28;20453;-76
2023/01/19 21:42:53;;;;;;;2.83;2.63;;;18.80;44.40;;;;;;5033016;28;20225;-77